createdAt,value
2018-04-15T00:00:15.214Z,10.33
2018-04-15T00:01:19.369Z,10.40
2018-04-15T00:02:22.688Z,10.10
2018-04-15T00:03:26.000Z,12.00
2018-04-15T00:04:30.095Z,10.20
2018-04-15T00:05:33.425Z,10.73
2018-04-15T00:06:36.821Z,11.50
2018-04-15T00:07:40.191Z,9.20
2018-04-15T00:08:43.527Z,9.60
2018-04-15T00:09:47.642Z,10.30
2018-04-15T00:10:50.961Z,9.57
2018-04-15T00:11:54.297Z,11.07
2018-04-15T00:12:57.617Z,10.93
2018-04-15T00:14:01.062Z,9.43
2018-04-15T00:15:04.553Z,11.23
2018-04-15T00:16:07.898Z,10.40
2018-04-15T00:17:11.304Z,10.70
2018-04-15T00:18:14.638Z,11.50
2018-04-15T00:19:18.780Z,10.53
2018-04-15T00:20:22.170Z,10.20
2018-04-15T00:21:25.511Z,10.50
2018-04-15T00:22:30.106Z,9.87
2018-04-15T00:23:34.192Z,10.93
2018-04-15T00:24:37.518Z,10.70
2018-04-15T00:25:41.653Z,11.30
2018-04-15T00:26:45.105Z,10.97
2018-04-15T00:27:49.238Z,10.20
2018-04-15T00:28:52.655Z,10.37
2018-04-15T00:29:56.002Z,11.00
2018-04-15T00:30:59.383Z,12.07
2018-04-15T00:32:02.753Z,11.83
2018-04-15T00:33:06.130Z,11.10
2018-04-15T00:34:09.476Z,12.10
2018-04-15T00:35:12.931Z,11.07
2018-04-15T00:36:16.285Z,11.70
2018-04-15T00:37:19.752Z,11.77
2018-04-15T00:38:23.128Z,10.77
2018-04-15T00:39:26.688Z,12.30
2018-04-15T00:40:30.154Z,12.10
2018-04-15T00:41:33.528Z,11.37
2018-04-15T00:42:36.877Z,11.30
2018-04-15T00:43:40.230Z,12.23
2018-04-15T00:44:43.624Z,11.30
2018-04-15T00:45:46.972Z,10.73
2018-04-15T00:46:50.319Z,10.87
2018-04-15T00:47:53.623Z,10.60
2018-04-15T00:48:57.076Z,9.90
2018-04-15T00:50:00.389Z,11.77
2018-04-15T00:51:03.713Z,11.30
2018-04-15T00:52:07.111Z,11.10
2018-04-15T00:53:10.441Z,11.87
2018-04-15T00:54:18.553Z,13.17
2018-04-15T00:55:21.925Z,13.10
2018-04-15T00:56:25.243Z,12.60
2018-04-15T00:57:29.350Z,12.00
2018-04-15T00:58:32.721Z,14.03
2018-04-15T00:59:36.801Z,12.87
2018-04-15T01:00:40.158Z,14.00
2018-04-15T01:01:43.501Z,13.20
2018-04-15T01:02:47.684Z,13.90
2018-04-15T01:03:51.073Z,14.00
2018-04-15T01:04:54.434Z,14.23
2018-04-15T01:05:57.777Z,13.63
2018-04-15T01:07:01.097Z,14.30
2018-04-15T01:08:04.456Z,14.23
2018-04-15T01:09:07.899Z,14.83
2018-04-15T01:10:11.283Z,13.80
2018-04-15T01:11:14.591Z,14.73
2018-04-15T01:12:17.956Z,12.77
2018-04-15T01:13:21.300Z,14.57
2018-04-15T01:14:24.607Z,12.47
2018-04-15T01:15:27.907Z,13.70
2018-04-15T01:16:31.228Z,15.10
2018-04-15T01:17:34.598Z,17.50
2018-04-15T01:18:38.725Z,17.87
2018-04-15T01:19:42.029Z,17.77
2018-04-15T01:20:45.345Z,18.67
2018-04-15T01:21:48.658Z,20.47
2018-04-15T01:22:51.968Z,20.47
2018-04-15T01:23:55.328Z,22.77
2018-04-15T01:24:58.727Z,23.93
2018-04-15T01:26:02.070Z,23.60
2018-04-15T01:27:05.530Z,21.90
2018-04-15T01:28:08.942Z,22.13
2018-04-15T01:29:12.541Z,22.00
2018-04-15T01:30:16.094Z,20.93
2018-04-15T01:31:19.557Z,21.23
2018-04-15T01:32:22.926Z,21.97
2018-04-15T01:33:26.374Z,20.77
2018-04-15T01:34:29.729Z,19.60
2018-04-15T01:35:33.172Z,18.63
2018-04-15T01:36:36.527Z,16.73
2018-04-15T01:37:39.914Z,14.00
2018-04-15T01:38:43.261Z,14.30
2018-04-15T01:39:46.684Z,13.50
2018-04-15T01:40:50.032Z,12.50
2018-04-15T01:41:53.406Z,12.37
2018-04-15T01:42:57.490Z,13.73
2018-04-15T01:44:00.857Z,12.73
2018-04-15T01:45:04.222Z,11.90
2018-04-15T01:46:07.539Z,11.70
2018-04-15T01:47:10.896Z,12.00
2018-04-15T01:48:14.949Z,13.17
2018-04-15T01:49:19.101Z,12.70
2018-04-15T01:50:22.470Z,11.03
2018-04-15T01:51:25.841Z,11.33
2018-04-15T01:52:29.187Z,10.97
2018-04-15T01:53:32.573Z,11.33
2018-04-15T01:54:35.905Z,12.53
2018-04-15T01:55:39.235Z,11.40
2018-04-15T01:56:42.600Z,11.00
2018-04-15T01:57:45.915Z,11.73
2018-04-15T01:58:49.310Z,11.70
2018-04-15T01:59:52.611Z,12.40
2018-04-15T02:00:55.956Z,11.17
2018-04-15T02:01:59.274Z,10.77
2018-04-15T02:03:03.409Z,12.17
2018-04-15T02:04:06.734Z,9.87
2018-04-15T02:05:10.276Z,10.73
2018-04-15T02:06:14.504Z,11.03
2018-04-15T02:07:17.890Z,12.20
2018-04-15T02:08:21.214Z,10.27
2018-04-15T02:09:24.514Z,10.70
2018-04-15T02:10:27.854Z,10.53
2018-04-15T02:11:31.200Z,11.03
2018-04-15T02:12:34.636Z,11.90
2018-04-15T02:13:38.050Z,11.47
2018-04-15T02:14:41.549Z,10.83
2018-04-15T02:15:45.603Z,9.90
2018-04-15T02:16:48.955Z,11.17
2018-04-15T02:17:52.274Z,10.80
2018-04-15T02:18:55.636Z,9.87
2018-04-15T02:19:59.021Z,9.80
2018-04-15T02:21:02.442Z,10.90
2018-04-15T02:22:05.785Z,10.90
2018-04-15T02:23:09.113Z,9.60
2018-04-15T02:24:12.481Z,9.67
2018-04-15T02:25:16.044Z,9.57
2018-04-15T02:26:19.562Z,10.50
2018-04-15T02:27:22.929Z,10.00
2018-04-15T02:28:26.239Z,10.20
2018-04-15T02:29:29.538Z,10.20
2018-04-15T02:30:32.842Z,10.77
2018-04-15T02:31:36.175Z,9.80
2018-04-15T02:32:39.564Z,10.53
2018-04-15T02:33:42.926Z,10.00
2018-04-15T02:34:46.225Z,9.67
2018-04-15T02:35:49.573Z,9.10
2018-04-15T02:36:52.946Z,9.10
2018-04-15T02:37:57.084Z,9.60
2018-04-15T02:39:00.436Z,8.57
2018-04-15T02:40:03.887Z,9.30
2018-04-15T02:41:07.166Z,8.00
2018-04-15T02:42:10.560Z,8.03
2018-04-15T02:43:13.976Z,8.37
2018-04-15T02:44:18.046Z,8.30
2018-04-15T02:45:21.372Z,7.30
2018-04-15T02:46:25.504Z,8.53
2018-04-15T02:47:28.804Z,7.47
2018-04-15T02:48:32.987Z,7.23
2018-04-15T02:49:36.317Z,6.57
2018-04-15T02:50:39.703Z,8.10
2018-04-15T02:51:43.101Z,7.83
2018-04-15T02:52:46.531Z,7.73
2018-04-15T02:53:49.928Z,7.73
2018-04-15T02:54:57.325Z,7.93
2018-04-15T02:56:00.683Z,7.97
2018-04-15T02:57:04.032Z,7.93
2018-04-15T02:58:07.389Z,8.37
2018-04-15T02:59:10.758Z,7.30
2018-04-15T03:00:14.152Z,7.87
2018-04-15T03:01:17.602Z,7.93
2018-04-15T03:02:21.608Z,6.70
2018-04-15T03:03:25.772Z,7.90
2018-04-15T03:04:29.184Z,7.80
2018-04-15T03:05:33.256Z,9.47
2018-04-15T03:06:36.561Z,7.83
2018-04-15T03:07:40.480Z,7.87
2018-04-15T03:08:44.592Z,8.57
2018-04-15T03:09:48.006Z,7.73
2018-04-15T03:10:51.380Z,7.57
2018-04-15T03:11:54.764Z,8.30
2018-04-15T03:12:58.123Z,8.83
2018-04-15T03:14:01.475Z,8.33
2018-04-15T03:15:04.825Z,7.43
2018-04-15T03:16:08.146Z,8.57
2018-04-15T03:17:11.485Z,8.67
2018-04-15T03:18:14.855Z,8.63
2018-04-15T03:19:19.340Z,8.47
2018-04-15T03:20:22.674Z,8.53
2018-04-15T03:21:25.975Z,7.60
2018-04-15T03:22:29.317Z,7.50
2018-04-15T03:23:33.437Z,7.60
2018-04-15T03:24:36.778Z,8.77
2018-04-15T03:25:40.124Z,8.07
2018-04-15T03:26:43.512Z,7.87
2018-04-15T03:27:46.944Z,9.00
2018-04-15T03:28:50.406Z,9.50
2018-04-15T03:29:53.787Z,9.90
2018-04-15T03:30:57.174Z,9.20
2018-04-15T03:32:00.507Z,9.50
2018-04-15T03:33:03.818Z,9.03
2018-04-15T03:34:07.368Z,10.07
2018-04-15T03:35:10.803Z,9.50
2018-04-15T03:36:14.160Z,11.03
2018-04-15T03:37:17.489Z,11.50
2018-04-15T03:38:20.946Z,10.87
2018-04-15T03:39:24.333Z,10.60
2018-04-15T03:40:27.664Z,11.20
2018-04-15T03:41:31.014Z,9.90
2018-04-15T03:42:34.427Z,10.73
2018-04-15T03:43:37.775Z,10.03
2018-04-15T03:44:41.075Z,10.70
2018-04-15T03:45:44.402Z,10.20
2018-04-15T03:46:47.724Z,9.97
2018-04-15T03:47:51.234Z,10.77
2018-04-15T03:48:54.594Z,10.20
2018-04-15T03:49:57.931Z,9.50
2018-04-15T03:51:01.280Z,9.83
2018-04-15T03:52:04.755Z,10.40
2018-04-15T03:53:08.161Z,9.83
2018-04-15T03:54:11.466Z,9.13
2018-04-15T03:55:14.798Z,10.27
2018-04-15T03:56:18.253Z,8.70
2018-04-15T03:57:21.777Z,9.30
2018-04-15T03:58:25.161Z,9.63
2018-04-15T03:59:29.308Z,8.53
2018-04-15T04:00:32.666Z,9.77
2018-04-15T04:01:35.956Z,8.70
2018-04-15T04:02:39.412Z,9.37
2018-04-15T04:03:42.751Z,9.07
2018-04-15T04:04:46.090Z,9.00
2018-04-15T04:05:50.202Z,9.27
2018-04-15T04:06:53.605Z,9.07
2018-04-15T04:07:56.930Z,9.47
2018-04-15T04:09:01.037Z,8.60
2018-04-15T04:10:04.414Z,9.10
2018-04-15T04:11:07.757Z,8.40
2018-04-15T04:12:11.128Z,7.07
2018-04-15T04:13:14.551Z,7.80
2018-04-15T04:14:18.343Z,8.27
2018-04-15T04:15:21.739Z,7.00
2018-04-15T04:16:25.083Z,7.47
2018-04-15T04:17:46.000Z,7.67
2018-04-15T04:19:06.788Z,7.20
2018-04-15T04:20:27.552Z,7.03
2018-04-15T04:21:48.477Z,6.47
2018-04-15T04:23:09.298Z,7.90
2018-04-15T04:24:30.043Z,7.27
2018-04-15T04:25:49.090Z,6.73
2018-04-15T04:26:52.430Z,7.17
2018-04-15T04:27:55.799Z,7.00
2018-04-15T04:28:59.101Z,6.40
2018-04-15T04:30:02.488Z,5.80
2018-04-15T04:31:05.824Z,6.50
2018-04-15T04:32:09.169Z,6.37
2018-04-15T04:33:13.358Z,6.20
2018-04-15T04:34:16.698Z,5.13
2018-04-15T04:35:20.127Z,5.60
2018-04-15T04:36:24.389Z,5.20
2018-04-15T04:37:27.800Z,5.27
2018-04-15T04:38:31.181Z,4.60
2018-04-15T04:39:34.496Z,5.50
2018-04-15T04:40:37.909Z,5.00
2018-04-15T04:41:41.275Z,5.83
2018-04-15T04:42:44.581Z,5.20
2018-04-15T04:43:47.864Z,5.40
2018-04-15T04:44:51.158Z,5.43
2018-04-15T04:45:55.260Z,4.90
2018-04-15T04:46:58.590Z,5.50
2018-04-15T04:48:01.900Z,5.20
2018-04-15T04:49:05.295Z,5.63
2018-04-15T04:50:08.589Z,5.50
2018-04-15T04:51:12.600Z,5.87
2018-04-15T04:52:15.945Z,4.83
2018-04-15T04:53:19.278Z,5.77
2018-04-15T04:54:22.663Z,6.57
2018-04-15T04:55:25.998Z,5.73
2018-04-15T04:56:29.455Z,6.33
2018-04-15T04:57:32.756Z,7.70
2018-04-15T04:58:36.084Z,8.00
2018-04-15T04:59:40.175Z,6.70
2018-04-15T05:00:43.471Z,8.43
2018-04-15T05:01:46.792Z,7.90
2018-04-15T05:02:50.130Z,9.80
2018-04-15T05:03:53.429Z,8.40
2018-04-15T05:04:56.742Z,7.73
2018-04-15T05:06:00.529Z,7.47
2018-04-15T05:07:04.641Z,6.90
2018-04-15T05:08:08.010Z,7.40
2018-04-15T05:09:11.316Z,8.00
2018-04-15T05:10:14.635Z,7.07
2018-04-15T05:11:17.962Z,7.37
2018-04-15T05:12:22.129Z,8.03
2018-04-15T05:13:25.479Z,7.73
2018-04-15T05:14:28.799Z,7.37
2018-04-15T05:15:32.103Z,6.77
2018-04-15T05:16:35.950Z,6.70
2018-04-15T05:17:39.301Z,6.70
2018-04-15T05:18:42.626Z,6.60
2018-04-15T05:19:46.043Z,6.90
2018-04-15T05:20:49.386Z,7.30
2018-04-15T05:21:52.783Z,6.10
2018-04-15T05:22:56.227Z,5.73
2018-04-15T05:24:00.341Z,6.27
2018-04-15T05:25:03.688Z,6.17
2018-04-15T05:26:06.987Z,6.00
2018-04-15T05:27:10.305Z,6.40
2018-04-15T05:28:14.526Z,5.33
2018-04-15T05:29:17.851Z,5.30
2018-04-15T05:30:21.207Z,5.30
2018-04-15T05:31:24.504Z,6.07
2018-04-15T05:32:27.829Z,4.97
2018-04-15T05:33:31.466Z,4.90
2018-04-15T05:34:34.821Z,6.40
2018-04-15T05:35:38.156Z,5.50
2018-04-15T05:36:41.505Z,5.03
2018-04-15T05:37:44.817Z,5.27
2018-04-15T05:38:48.158Z,4.60
2018-04-15T05:39:51.511Z,4.87
2018-04-15T05:40:54.853Z,5.67
2018-04-15T05:41:58.154Z,5.77
2018-04-15T05:43:01.521Z,4.83
2018-04-15T05:44:04.881Z,5.07
2018-04-15T05:45:08.705Z,5.50
2018-04-15T05:46:12.024Z,5.87
2018-04-15T05:47:15.412Z,5.67
2018-04-15T05:48:18.843Z,5.93
2018-04-15T05:49:22.149Z,5.43
2018-04-15T05:50:25.460Z,5.90
2018-04-15T05:51:28.809Z,5.93
2018-04-15T05:52:32.119Z,5.10
2018-04-15T05:53:35.550Z,5.77
2018-04-15T05:54:38.961Z,6.10
2018-04-15T05:55:42.296Z,6.20
2018-04-15T05:56:45.636Z,5.17
2018-04-15T05:57:48.965Z,6.00
2018-04-15T05:58:52.253Z,6.10
2018-04-15T05:59:55.624Z,6.40
2018-04-15T06:00:58.965Z,6.50
2018-04-15T06:02:02.328Z,6.30
2018-04-15T06:03:05.706Z,7.07
2018-04-15T06:04:09.031Z,7.63
2018-04-15T06:05:12.392Z,7.60
2018-04-15T06:06:15.690Z,7.77
2018-04-15T06:07:19.074Z,7.20
2018-04-15T06:08:22.399Z,6.70
2018-04-15T06:09:25.729Z,7.63
2018-04-15T06:10:29.078Z,8.73
2018-04-15T06:11:32.453Z,8.20
2018-04-15T06:12:35.773Z,6.80
2018-04-15T06:13:39.132Z,7.30
2018-04-15T06:14:42.493Z,8.00
2018-04-15T06:15:45.871Z,8.40
2018-04-15T06:16:49.285Z,8.07
2018-04-15T06:17:52.610Z,8.70
2018-04-15T06:18:55.956Z,8.23
2018-04-15T06:19:59.252Z,7.90
2018-04-15T06:21:02.624Z,8.90
2018-04-15T06:22:05.957Z,8.80
2018-04-15T06:23:09.282Z,9.87
2018-04-15T06:24:12.585Z,9.23
2018-04-15T06:25:15.880Z,8.90
2018-04-15T06:26:19.250Z,9.07
2018-04-15T06:27:22.562Z,8.47
2018-04-15T06:29:50.154Z,9.00
2018-04-15T06:30:53.601Z,7.80
2018-04-15T06:31:56.989Z,8.43
2018-04-15T06:33:00.420Z,8.87
2018-04-15T06:34:03.745Z,9.10
2018-04-15T06:35:07.067Z,9.33
2018-04-15T06:36:10.472Z,10.07
2018-04-15T06:37:14.556Z,8.83
2018-04-15T06:38:18.739Z,8.57
2018-04-15T06:39:22.139Z,9.50
2018-04-15T06:40:26.282Z,10.40
2018-04-15T06:41:29.609Z,9.23
2018-04-15T06:42:32.969Z,10.20
2018-04-15T06:43:36.304Z,10.10
2018-04-15T06:44:39.679Z,10.23
2018-04-15T06:45:43.029Z,9.60
2018-04-15T06:46:46.474Z,9.10
2018-04-15T06:47:50.589Z,10.40
2018-04-15T06:48:53.906Z,10.50
2018-04-15T06:49:57.443Z,10.80
2018-04-15T06:51:00.771Z,11.20
2018-04-15T06:52:04.187Z,9.10
2018-04-15T06:53:07.545Z,9.03
2018-04-15T06:54:10.894Z,10.37
2018-04-15T06:55:14.537Z,10.27
2018-04-15T06:56:17.954Z,10.90
2018-04-15T06:57:21.245Z,9.60
2018-04-15T06:58:24.631Z,9.27
2018-04-15T06:59:28.742Z,9.63
2018-04-15T07:00:32.130Z,10.63
2018-04-15T07:01:37.038Z,9.57
2018-04-15T07:02:40.518Z,10.27
2018-04-15T07:03:44.184Z,9.83
2018-04-15T07:04:47.509Z,9.90
2018-04-15T07:05:51.020Z,9.27
2018-04-15T07:06:56.855Z,9.10
2018-04-15T07:08:00.356Z,9.50
2018-04-15T07:09:03.711Z,9.40
2018-04-15T07:10:07.087Z,8.93
2018-04-15T07:11:10.491Z,9.47
2018-04-15T07:12:13.912Z,8.60
2018-04-15T07:13:17.233Z,9.90
2018-04-15T07:14:20.832Z,9.60
2018-04-15T07:15:24.858Z,9.30
2018-04-15T07:16:28.355Z,8.97
2018-04-15T07:17:32.454Z,9.60
2018-04-15T07:18:35.897Z,10.07
2018-04-15T07:19:39.373Z,8.53
2018-04-15T07:20:42.723Z,8.63
2018-04-15T07:21:46.889Z,9.47
2018-04-15T07:22:50.246Z,9.00
2018-04-15T07:23:54.087Z,8.40
2018-04-15T07:24:57.439Z,8.83
2018-04-15T07:26:00.788Z,8.97
2018-04-15T07:27:04.121Z,8.60
2018-04-15T07:28:08.133Z,8.30
2018-04-15T07:29:11.522Z,9.27
2018-04-15T07:30:14.908Z,8.80
2018-04-15T07:31:18.357Z,7.93
2018-04-15T07:32:21.670Z,9.13
2018-04-15T07:33:24.993Z,8.90
2018-04-15T07:34:28.486Z,8.90
2018-04-15T07:35:31.891Z,8.70
2018-04-15T07:36:35.309Z,9.00
2018-04-15T07:37:38.741Z,8.60
2018-04-15T07:38:42.182Z,8.40
2018-04-15T07:39:46.213Z,8.53
2018-04-15T07:40:49.664Z,8.60
2018-04-15T07:41:53.004Z,8.23
2018-04-15T07:42:56.641Z,9.00
2018-04-15T07:44:00.027Z,8.57
2018-04-15T07:45:03.344Z,7.53
2018-04-15T07:46:07.629Z,8.60
2018-04-15T07:47:10.981Z,8.00
2018-04-15T07:48:14.330Z,7.67
2018-04-15T07:49:17.749Z,8.70
2018-04-15T07:50:21.059Z,6.90
2018-04-15T07:51:24.379Z,7.10
2018-04-15T07:52:28.487Z,6.93
2018-04-15T07:53:32.604Z,6.53
2018-04-15T07:54:35.991Z,6.43
2018-04-15T07:55:39.493Z,5.40
2018-04-15T07:56:42.917Z,5.10
2018-04-15T07:57:46.291Z,4.77
2018-04-15T07:58:49.669Z,4.50
2018-04-15T07:59:53.042Z,4.70
2018-04-15T08:00:56.504Z,4.80
2018-04-15T08:01:59.954Z,3.90
2018-04-15T08:03:03.416Z,4.03
2018-04-15T08:04:06.758Z,4.70
2018-04-15T08:05:10.120Z,4.07
2018-04-15T08:06:13.402Z,4.00
2018-04-15T08:07:17.611Z,4.30
2018-04-15T08:08:21.014Z,3.40
2018-04-15T08:09:24.327Z,3.47
2018-04-15T08:10:27.630Z,3.43
2018-04-15T08:11:30.933Z,3.50
2018-04-15T08:12:34.268Z,3.97
2018-04-15T08:13:37.585Z,3.53
2018-04-15T08:14:41.068Z,3.30
2018-04-15T08:15:44.718Z,4.40
2018-04-15T08:16:48.815Z,4.20
2018-04-15T08:17:52.203Z,3.10
2018-04-15T08:18:55.526Z,4.30
2018-04-15T08:19:58.853Z,4.00
2018-04-15T08:21:02.188Z,3.43
2018-04-15T08:22:05.556Z,3.40
2018-04-15T08:23:09.661Z,3.43
2018-04-15T08:24:13.595Z,2.83
2018-04-15T08:25:17.212Z,2.70
2018-04-15T08:26:20.506Z,2.17
2018-04-15T08:27:24.592Z,2.33
2018-04-15T08:28:27.908Z,2.50
2018-04-15T08:29:31.963Z,2.70
2018-04-15T08:30:35.279Z,2.67
2018-04-15T08:31:38.635Z,2.57
2018-04-15T08:32:41.989Z,2.37
2018-04-15T08:33:45.362Z,3.47
2018-04-15T08:34:48.668Z,3.37
2018-04-15T08:35:52.022Z,3.80
2018-04-15T08:36:55.387Z,4.03
2018-04-15T08:37:58.757Z,5.47
2018-04-15T08:39:02.129Z,4.47
2018-04-15T08:40:05.453Z,6.20
2018-04-15T08:41:08.797Z,7.80
2018-04-15T08:42:12.112Z,6.60
2018-04-15T08:43:16.108Z,7.07
2018-04-15T08:44:19.498Z,8.43
2018-04-15T08:45:23.519Z,8.30
2018-04-15T08:46:27.714Z,7.80
2018-04-15T08:47:32.014Z,7.40
2018-04-15T08:48:35.342Z,7.23
2018-04-15T08:49:38.665Z,6.20
2018-04-15T08:50:42.037Z,7.07
2018-04-15T08:51:45.374Z,7.00
2018-04-15T08:52:48.762Z,6.07
2018-04-15T08:53:52.126Z,6.90
2018-04-15T08:54:55.701Z,7.93
2018-04-15T08:55:59.093Z,7.50
2018-04-15T08:57:02.403Z,7.43
2018-04-15T08:58:05.754Z,8.40
2018-04-15T08:59:09.138Z,6.00
2018-04-15T09:00:12.568Z,5.40
2018-04-15T09:01:16.714Z,5.63
2018-04-15T09:02:20.098Z,4.67
2018-04-15T09:03:23.831Z,4.63
2018-04-15T09:04:27.181Z,4.90
2018-04-15T09:05:30.535Z,3.13
2018-04-15T09:06:33.995Z,3.20
2018-04-15T09:07:37.423Z,3.27
2018-04-15T09:08:41.011Z,3.77
2018-04-15T09:09:44.506Z,3.37
2018-04-15T09:10:50.301Z,3.00
2018-04-15T09:12:01.970Z,3.47
2018-04-15T09:13:16.338Z,3.30
2018-04-15T09:14:21.349Z,3.30
2018-04-15T09:15:31.522Z,3.50
2018-04-15T09:16:39.057Z,3.00
2018-04-15T09:17:42.650Z,3.10
2018-04-15T09:18:46.266Z,2.53
2018-04-15T09:19:50.573Z,2.67
2018-04-15T09:20:55.513Z,2.90
2018-04-15T09:21:59.904Z,2.40
2018-04-15T09:23:03.260Z,2.30
2018-04-15T09:24:06.629Z,2.30
2018-04-15T09:25:09.982Z,2.10
2018-04-15T09:26:13.434Z,2.00
2018-04-15T09:27:17.584Z,2.13
2018-04-15T09:28:20.978Z,1.90
2018-04-15T09:29:24.375Z,2.47
2018-04-15T09:30:27.689Z,2.20
2018-04-15T09:31:31.025Z,2.07
2018-04-15T09:32:34.609Z,2.40
2018-04-15T09:33:37.983Z,2.00
2018-04-15T09:34:42.157Z,1.70
2018-04-15T09:35:45.511Z,1.87
2018-04-15T09:36:48.923Z,2.30
2018-04-15T09:38:08.075Z,1.63
2018-04-15T09:58:11.878Z,1.90
2018-04-15T09:59:15.325Z,2.47
2018-04-15T10:01:40.457Z,2.17
2018-04-15T10:02:46.411Z,2.07
2018-04-15T10:03:49.719Z,2.00
2018-04-15T10:04:53.094Z,2.10
2018-04-15T10:05:56.421Z,2.30
2018-04-15T10:06:59.902Z,2.03
2018-04-15T10:08:04.108Z,2.07
2018-04-15T10:09:07.457Z,2.10
2018-04-15T10:10:10.759Z,1.70
2018-04-15T10:11:14.087Z,2.43
2018-04-15T10:12:18.204Z,1.93
2018-04-15T10:13:21.516Z,1.80
2018-04-15T10:14:24.808Z,2.47
2018-04-15T10:16:36.595Z,2.20
2018-04-15T10:17:39.887Z,1.57
2018-04-15T10:18:43.200Z,1.70
2018-04-15T10:19:47.285Z,1.60
2018-04-15T10:20:50.603Z,2.30
2018-04-15T10:21:54.851Z,2.00
2018-04-15T10:22:58.161Z,2.70
2018-04-15T10:24:01.588Z,2.00
2018-04-15T10:25:04.889Z,2.77
2018-04-15T10:26:08.224Z,2.10
2018-04-15T10:27:11.550Z,1.90
2018-04-15T10:28:14.861Z,2.00
2018-04-15T10:29:18.228Z,1.70
2018-04-15T10:30:21.534Z,2.00
2018-04-15T10:31:24.890Z,1.70
2018-04-15T10:32:28.199Z,1.77
2018-04-15T10:33:31.493Z,2.10
2018-04-15T10:34:34.796Z,1.97
2018-04-15T10:35:38.133Z,2.13
2018-04-15T10:36:41.466Z,1.97
2018-04-15T10:37:45.636Z,1.80
2018-04-15T10:38:48.935Z,1.83
2018-04-15T10:39:52.286Z,1.40
2018-04-15T10:40:55.603Z,1.90
2018-04-15T10:41:58.932Z,1.80
2018-04-15T10:43:03.003Z,2.10
2018-04-15T10:44:07.091Z,1.33
2018-04-15T10:45:10.443Z,1.60
2018-04-15T10:46:13.766Z,1.77
2018-04-15T10:47:17.139Z,2.00
2018-04-15T11:07:22.751Z,1.57
2018-04-15T11:08:26.908Z,1.40
2018-04-15T11:09:30.222Z,1.73
2018-04-15T11:10:33.602Z,1.30
2018-04-15T11:11:36.909Z,1.40
2018-04-15T11:12:40.249Z,1.83
2018-04-15T11:13:43.678Z,1.57
2018-04-15T11:14:47.334Z,1.20
2018-04-15T11:15:50.660Z,1.47
2018-04-15T11:16:54.003Z,1.17
2018-04-15T11:17:57.348Z,1.47
2018-04-15T11:19:00.798Z,1.30
2018-04-15T11:20:04.179Z,1.83
2018-04-15T11:21:09.217Z,1.63
2018-04-15T11:22:13.391Z,1.17
2018-04-15T11:23:17.608Z,1.07
2018-04-15T11:24:20.981Z,1.47
2018-04-15T11:26:43.039Z,1.57
2018-04-15T11:27:48.774Z,1.37
2018-04-15T11:28:52.122Z,1.50
2018-04-15T11:29:55.466Z,1.80
2018-04-15T11:31:07.026Z,1.80
2018-04-15T11:32:10.390Z,1.50
2018-04-15T11:33:13.836Z,1.53
2018-04-15T11:34:17.240Z,1.77
2018-04-15T11:35:21.124Z,1.80
2018-04-15T11:36:24.424Z,1.43
2018-04-15T11:37:27.731Z,1.70
2018-04-15T11:38:31.037Z,1.67
2018-04-15T11:39:34.352Z,1.93
2018-04-15T11:40:37.683Z,1.30
2018-04-15T11:41:41.030Z,1.50
2018-04-15T11:42:44.350Z,1.27
2018-04-15T11:43:48.260Z,1.60
2018-04-15T11:44:52.356Z,1.57
2018-04-15T11:45:57.074Z,1.47
2018-04-15T11:47:00.422Z,1.00
2018-04-15T11:48:03.769Z,1.50
2018-04-15T11:49:07.167Z,1.27
2018-04-15T11:50:11.257Z,1.10
2018-04-15T11:51:15.510Z,1.10
2018-04-15T11:52:18.854Z,1.20
2018-04-15T11:53:22.199Z,1.23
2018-04-15T11:54:25.615Z,1.40
2018-04-15T11:55:29.610Z,0.97
2018-04-15T11:56:33.724Z,1.13
2018-04-15T11:57:37.076Z,1.10
2018-04-15T11:58:40.430Z,1.40
2018-04-15T11:59:44.852Z,1.33
2018-04-15T12:00:48.159Z,1.30
2018-04-15T12:01:51.522Z,1.30
2018-04-15T12:02:54.867Z,1.10
2018-04-15T12:03:59.021Z,1.13
2018-04-15T12:05:02.437Z,1.40
2018-04-15T12:06:05.848Z,1.50
2018-04-15T12:07:09.212Z,1.20
2018-04-15T12:08:12.586Z,1.10
2018-04-15T12:09:15.979Z,1.43
2018-04-15T12:10:19.303Z,1.20
2018-04-15T12:11:22.664Z,1.30
2018-04-15T12:12:26.890Z,1.27
2018-04-15T12:13:30.644Z,1.13
2018-04-15T12:14:34.103Z,1.20
2018-04-15T12:15:37.924Z,1.40
2018-04-15T12:16:41.310Z,1.40
2018-04-15T12:17:45.491Z,1.20
2018-04-15T12:18:48.898Z,1.57
2018-04-15T12:19:52.332Z,1.00
2018-04-15T12:20:55.724Z,1.37
2018-04-15T12:21:59.286Z,0.97
2018-04-15T12:23:02.698Z,1.40
2018-04-15T12:24:06.044Z,1.20
2018-04-15T12:25:09.433Z,1.60
2018-04-15T12:26:12.927Z,1.13
2018-04-15T12:27:16.268Z,1.10
2018-04-15T12:28:19.712Z,1.00
2018-04-15T12:29:23.816Z,1.10
2018-04-15T12:30:27.923Z,1.00
2018-04-15T12:31:32.085Z,1.00
2018-04-15T12:32:35.433Z,0.90
2018-04-15T12:33:38.815Z,1.20
2018-04-15T12:34:42.235Z,1.30
2018-04-15T12:35:45.638Z,0.93
2018-04-15T12:36:48.936Z,1.10
2018-04-15T12:37:52.351Z,1.00
2018-04-15T12:38:55.728Z,1.07
2018-04-15T12:39:59.873Z,0.80
2018-04-15T12:41:03.194Z,1.10
2018-04-15T12:42:06.502Z,0.97
2018-04-15T12:43:09.829Z,0.83
2018-04-15T12:44:13.348Z,0.90
2018-04-15T12:45:16.720Z,1.17
2018-04-15T12:46:20.054Z,0.80
2018-04-15T12:47:24.131Z,1.10
2018-04-15T12:48:27.459Z,2.10
2018-04-15T12:49:30.793Z,1.07
2018-04-15T12:50:34.132Z,1.33
2018-04-15T12:51:39.359Z,1.00
2018-04-15T12:52:42.661Z,1.10
2018-04-15T12:53:46.061Z,1.20
2018-04-15T12:54:49.436Z,1.00
2018-04-15T12:55:53.008Z,1.10
2018-04-15T12:56:56.387Z,0.97
2018-04-15T12:57:59.716Z,0.90
2018-04-15T12:59:03.132Z,0.73
2018-04-15T13:00:06.573Z,1.30
2018-04-15T13:01:09.948Z,1.20
2018-04-15T13:02:13.373Z,0.80
2018-04-15T13:04:28.772Z,1.10
2018-04-15T13:05:32.152Z,1.40
2018-04-15T13:06:36.287Z,1.27
2018-04-15T13:07:39.657Z,1.30
2018-04-15T13:08:43.059Z,1.37
2018-04-15T13:09:46.524Z,0.90
2018-04-15T13:10:49.950Z,1.10
2018-04-15T13:11:53.284Z,1.30
2018-04-15T13:12:58.036Z,0.93
2018-04-15T13:14:01.377Z,1.30
2018-04-15T13:15:04.824Z,1.37
2018-04-15T13:16:08.269Z,1.10
2018-04-15T13:17:11.592Z,1.50
2018-04-15T13:18:14.983Z,0.90
2018-04-15T13:19:18.405Z,1.23
2018-04-15T13:20:21.729Z,1.10
2018-04-15T13:21:25.087Z,1.40
2018-04-15T13:22:29.375Z,0.87
2018-04-15T13:23:32.735Z,0.80
2018-04-15T13:24:36.215Z,1.03
2018-04-15T13:25:39.799Z,1.03
2018-04-15T13:26:43.271Z,1.30
2018-04-15T13:27:46.688Z,1.27
2018-04-15T13:28:50.983Z,1.30
2018-04-15T13:29:55.058Z,1.23
2018-04-15T13:30:58.583Z,1.00
2018-04-15T13:32:02.072Z,0.93
2018-04-15T13:33:05.412Z,1.03
2018-04-15T13:34:09.521Z,1.00
2018-04-15T13:35:12.852Z,1.10
2018-04-15T13:36:16.197Z,1.40
2018-04-15T13:37:20.320Z,1.60
2018-04-15T13:38:23.733Z,1.27
2018-04-15T13:39:27.085Z,1.40
2018-04-15T13:40:30.440Z,1.50
2018-04-15T13:41:33.802Z,1.60
2018-04-15T13:42:37.190Z,1.50
2018-04-15T13:43:40.531Z,1.30
2018-04-15T13:44:44.119Z,1.07
2018-04-15T13:45:47.554Z,0.90
2018-04-15T13:46:50.874Z,0.80
2018-04-15T13:47:54.203Z,0.87
2018-04-15T13:48:57.517Z,1.00
2018-04-15T13:50:00.853Z,0.87
2018-04-15T13:51:04.194Z,1.00
2018-04-15T13:52:07.474Z,1.30
2018-04-15T13:53:10.834Z,0.93
2018-04-15T13:54:14.151Z,1.13
2018-04-15T13:55:17.490Z,1.10
2018-04-15T13:56:20.858Z,1.00
2018-04-15T13:57:24.203Z,1.30
2018-04-15T13:58:27.527Z,1.30
2018-04-15T13:59:30.881Z,2.07
2018-04-15T14:00:34.242Z,1.77
2018-04-15T14:01:37.626Z,1.80
2018-04-15T14:02:40.929Z,1.97
2018-04-15T14:03:44.344Z,1.63
2018-04-15T14:04:47.646Z,0.97
2018-04-15T14:05:50.979Z,1.20
2018-04-15T14:06:54.307Z,1.27
2018-04-15T14:07:57.653Z,1.43
2018-04-15T14:09:01.765Z,1.53
2018-04-15T14:10:05.888Z,1.27
2018-04-15T14:11:09.210Z,1.40
2018-04-15T14:12:12.655Z,1.10
2018-04-15T14:13:16.722Z,1.20
2018-04-15T14:14:20.019Z,1.23
2018-04-15T14:15:23.361Z,0.80
2018-04-15T14:16:26.681Z,1.27
2018-04-15T14:17:29.992Z,1.10
2018-04-15T14:18:33.303Z,0.90
2018-04-15T14:19:36.648Z,0.70
2018-04-15T14:20:40.803Z,1.03
2018-04-15T14:21:44.112Z,0.90
2018-04-15T14:22:47.428Z,1.40
2018-04-15T14:23:51.535Z,0.80
2018-04-15T14:24:55.663Z,1.00
2018-04-15T14:25:59.003Z,0.77
2018-04-15T14:27:03.120Z,0.83
2018-04-15T14:28:06.513Z,1.00
2018-04-15T14:29:09.849Z,1.03
2018-04-15T14:30:13.191Z,1.07
2018-04-15T14:31:16.491Z,1.27
2018-04-15T14:32:20.195Z,0.90
2018-04-15T14:33:23.818Z,0.63
2018-04-15T14:34:27.569Z,1.20
2018-04-15T14:35:31.780Z,1.00
2018-04-15T14:36:35.540Z,0.80
2018-04-15T14:37:39.220Z,0.90
2018-04-15T14:38:43.337Z,1.37
2018-04-15T14:39:47.443Z,1.33
2018-04-15T14:40:51.570Z,1.00
2018-04-15T14:41:54.970Z,0.90
2018-04-15T14:42:58.269Z,0.80
2018-04-15T14:44:01.584Z,0.97
2018-04-15T14:45:05.733Z,1.23
2018-04-15T14:46:09.080Z,0.90
2018-04-15T14:47:12.443Z,1.30